createdAt,value
2018-11-22T00:03:18.924Z,30.30
2018-11-22T00:13:22.171Z,32.33
2018-11-22T00:23:25.460Z,37.87
2018-11-22T00:33:28.706Z,25.13
2018-11-22T00:43:31.969Z,23.03
2018-11-22T00:53:35.242Z,23.27
2018-11-22T01:03:38.481Z,28.83
2018-11-22T01:13:41.720Z,25.33
2018-11-22T01:23:45.038Z,26.17
2018-11-22T01:33:48.406Z,30.83
2018-11-22T01:43:51.633Z,26.20
2018-11-22T01:53:54.898Z,27.70
2018-11-22T12:22:13.966Z,20.23
2018-11-22T12:32:41.593Z,21.80
2018-11-22T12:42:44.892Z,26.57
2018-11-22T12:52:48.237Z,28.57
2018-11-22T13:02:51.572Z,29.63
2018-11-22T13:12:54.934Z,21.27
2018-11-22T13:22:58.251Z,29.13
2018-11-22T13:33:01.578Z,23.67
2018-11-22T13:43:05.274Z,21.70
2018-11-22T13:53:08.810Z,24.00
2018-11-22T14:03:12.935Z,24.20
2018-11-22T14:13:16.194Z,25.13
2018-11-22T14:23:19.614Z,22.60
2018-11-22T14:33:22.972Z,22.43
2018-11-22T14:43:26.324Z,24.50
2018-11-22T14:53:30.147Z,19.73
2018-11-22T15:03:33.571Z,21.80
2018-11-22T15:13:36.942Z,21.77
2018-11-22T15:23:40.267Z,24.67
2018-11-22T15:33:43.599Z,25.40
2018-11-22T15:43:46.923Z,23.97
2018-11-22T15:53:50.282Z,25.77
2018-11-22T16:03:53.591Z,23.67
2018-11-22T16:13:56.944Z,26.90
2018-11-22T16:24:00.286Z,27.17
2018-11-22T16:34:03.639Z,28.70
2018-11-22T16:44:07.570Z,28.30
2018-11-22T16:54:10.987Z,27.13
2018-11-22T17:04:14.194Z,25.90
2018-11-22T17:14:17.542Z,29.63
2018-11-22T17:24:21.002Z,29.87
2018-11-22T17:34:24.298Z,29.27
2018-11-22T17:44:27.630Z,26.60
2018-11-22T17:54:30.993Z,27.87
2018-11-22T18:04:34.375Z,28.23
2018-11-22T18:14:37.670Z,26.20
2018-11-22T18:24:40.902Z,39.13
2018-11-22T18:34:45.362Z,29.37
2018-11-22T18:44:48.682Z,31.93
2018-11-22T18:54:51.990Z,32.97
2018-11-22T19:04:55.316Z,32.03
2018-11-22T19:14:58.751Z,34.20
2018-11-22T19:25:02.005Z,35.10
2018-11-22T19:35:06.779Z,35.47
2018-11-22T19:45:11.558Z,38.33
2018-11-22T19:55:16.521Z,40.30
2018-11-22T20:05:20.894Z,37.90
2018-11-22T20:15:24.290Z,38.90
2018-11-22T20:25:27.821Z,36.43
2018-11-22T20:35:31.852Z,37.10
2018-11-22T20:45:40.771Z,41.80
2018-11-22T20:55:39.770Z,39.97
2018-11-22T21:05:43.119Z,43.80
2018-11-22T21:15:46.487Z,38.20
2018-11-22T21:25:49.828Z,45.67
2018-11-22T21:35:53.042Z,37.40
2018-11-22T21:45:56.496Z,45.57
2018-11-22T21:55:59.843Z,37.20
2018-11-22T22:06:03.194Z,39.87
2018-11-22T22:16:06.541Z,48.53
2018-11-22T22:26:09.863Z,39.07
2018-11-22T22:36:13.238Z,36.40
2018-11-22T22:46:16.892Z,40.37
2018-11-22T22:56:20.232Z,37.50
2018-11-22T23:06:23.568Z,36.10
2018-11-22T23:16:26.957Z,40.30
2018-11-22T23:26:31.175Z,39.77
2018-11-22T23:36:34.511Z,38.57
2018-11-22T23:46:37.858Z,34.87
2018-11-22T23:56:41.187Z,36.60
